Menu Horizontal
luftaufnahme
Willkommen auf der Webseite der privaten Wetterstation -- Taufkirchen an der Pram -- 48°24'29,52" Nord  <>  13°32'13,20" Ost
Wetterdaten - Samstag, 26.05.2018 - Taufkirchen an der Pram     336 m über NN
Wetterdaten: aktuell Samstag, 26.05.2018 23:00
Datum Zeit Temp. A. Feuchte A. Luftdruck Regen Wind Sonnenschein UV Solar Windchill Empfang
26.05.2018 23:00 18,1 °C 82 % 1020,3 hPa 0,0 l/m² 0,0 km/h 0 min 0,0 UV-I 0 W/m² 18,1 °C 100 %
26.05.2018 22:50 18,4 °C 80 % 1020,3 hPa 0,0 l/m² 0,0 km/h 0 min 0,0 UV-I 0 W/m² 18,4 °C 100 %
26.05.2018 22:40 18,8 °C 79 % 1020,2 hPa 0,0 l/m² 0,0 km/h 0 min 0,0 UV-I 0 W/m² 18,8 °C 100 %
26.05.2018 22:30 19,2 °C 78 % 1020,1 hPa 0,0 l/m² 0,0 km/h 0 min 0,0 UV-I 0 W/m² 19,2 °C 100 %
26.05.2018 22:20 19,5 °C 78 % 1019,9 hPa 0,0 l/m² 0,0 km/h 0 min 0,0 UV-I 0 W/m² 19,5 °C 99 %
26.05.2018 22:10 19,9 °C 78 % 1019,8 hPa 0,0 l/m² 0,0 km/h 0 min 0,0 UV-I 0 W/m² 19,9 °C 100 %
26.05.2018 22:00 20,3 °C 77 % 1019,8 hPa 0,0 l/m² 0,0 km/h 0 min 0,0 UV-I 0 W/m² 20,3 °C 91 %
26.05.2018 21:50 20,8 °C 76 % 1019,7 hPa 0,0 l/m² 0,0 km/h 0 min 0,0 UV-I 0 W/m² 20,8 °C 100 %
26.05.2018 21:40 21,4 °C 72 % 1019,7 hPa 0,0 l/m² 0,0 km/h 0 min 0,0 UV-I 0 W/m² 21,4 °C 100 %
26.05.2018 21:30 22,1 °C 71 % 1019,5 hPa 0,0 l/m² 0,0 km/h 0 min 0,0 UV-I 0 W/m² 22,1 °C 100 %
26.05.2018 21:20 22,7 °C 68 % 1019,4 hPa 0,0 l/m² 0,0 km/h 0 min 0,0 UV-I 0 W/m² 22,7 °C 100 %
26.05.2018 21:10 23,1 °C 67 % 1019,2 hPa 0,0 l/m² 0,0 km/h 0 min 0,0 UV-I 0 W/m² 23,1 °C 100 %
26.05.2018 21:00 23,7 °C 62 % 1019,2 hPa 0,0 l/m² 0,0 km/h 0 min 0,0 UV-I 4 W/m² 23,7 °C 100 %
26.05.2018 20:50 24,2 °C 64 % 1019,1 hPa 0,0 l/m² 0,0 km/h 0 min 0,0 UV-I 15 W/m² 24,2 °C 100 %
26.05.2018 20:40 24,7 °C 60 % 1019,0 hPa 0,0 l/m² 0,0 km/h 0 min 0,0 UV-I 16 W/m² 24,7 °C 100 %
26.05.2018 20:30 25,0 °C 58 % 1019,0 hPa 0,0 l/m² 0,0 km/h 0 min 0,0 UV-I 29 W/m² 25,0 °C 100 %
26.05.2018 20:20 25,2 °C 57 % 1018,9 hPa 0,0 l/m² 0,0 km/h 0 min 0,0 UV-I 33 W/m² 25,2 °C 100 %
26.05.2018 20:10 25,3 °C 55 % 1019,0 hPa 0,0 l/m² 0,0 km/h 0 min 0,0 UV-I 59 W/m² 25,3 °C 100 %
26.05.2018 20:00 25,3 °C 54 % 1019,1 hPa 0,0 l/m² 0,0 km/h 0 min 0,0 UV-I 82 W/m² 25,3 °C 100 %
26.05.2018 19:50 25,4 °C 52 % 1019,1 hPa 0,0 l/m² 0,0 km/h 0 min 0,0 UV-I 101 W/m² 25,4 °C 100 %
26.05.2018 19:40 25,6 °C 51 % 1019,1 hPa 0,0 l/m² 0,0 km/h 10 min 0,0 UV-I 106 W/m² 25,6 °C 100 %
26.05.2018 19:30 25,8 °C 51 % 1019,1 hPa 0,0 l/m² 0,5 km/h 10 min 0,0 UV-I 114 W/m² 25,8 °C 100 %
26.05.2018 19:20 25,9 °C 50 % 1019,1 hPa 0,0 l/m² 0,0 km/h 2 min 0,5 UV-I 122 W/m² 25,9 °C 100 %
26.05.2018 19:18 25,9 °C 51 % 1019,1 hPa 0,0 l/m² 0,0 km/h 28 min 0,5 UV-I 133 W/m² 25,9 °C 100 %
26.05.2018 18:50 26,3 °C 49 % 1018,7 hPa 0,0 l/m² 1,8 km/h 10 min 0,7 UV-I 129 W/m² 26,3 °C 100 %
26.05.2018 18:40 26,6 °C 46 % 1018,7 hPa 0,0 l/m² 4,5 km/h 10 min 0,9 UV-I 282 W/m² 26,6 °C 100 %
26.05.2018 18:30 26,9 °C 46 % 1018,7 hPa 0,0 l/m² 2,6 km/h 10 min 1,0 UV-I 328 W/m² 26,9 °C 100 %
26.05.2018 18:20 27,2 °C 44 % 1018,8 hPa 0,0 l/m² 3,0 km/h 10 min 1,2 UV-I 376 W/m² 27,2 °C 100 %
26.05.2018 18:10 27,5 °C 44 % 1018,8 hPa 0,0 l/m² 2,2 km/h 10 min 1,4 UV-I 410 W/m² 27,5 °C 100 %
26.05.2018 18:00 27,6 °C 46 % 1018,8 hPa 0,0 l/m² 0,6 km/h 10 min 1,6 UV-I 447 W/m² 27,6 °C 100 %
26.05.2018 17:50 27,3 °C 48 % 1018,8 hPa 0,0 l/m² 1,3 km/h 10 min 1,6 UV-I 372 W/m² 27,3 °C 100 %
26.05.2018 17:40 27,4 °C 47 % 1018,9 hPa 0,0 l/m² 0,8 km/h 10 min 1,6 UV-I 309 W/m² 27,4 °C 100 %
26.05.2018 17:30 27,3 °C 47 % 1019,0 hPa 0,0 l/m² 1,0 km/h 10 min 1,9 UV-I 394 W/m² 27,3 °C 100 %
26.05.2018 17:20 27,3 °C 47 % 1019,1 hPa 0,0 l/m² 2,0 km/h 10 min 1,9 UV-I 329 W/m² 27,3 °C 99 %
26.05.2018 17:10 27,5 °C 45 % 1019,1 hPa 0,0 l/m² 6,0 km/h 10 min 2,6 UV-I 539 W/m² 27,5 °C 100 %
26.05.2018 17:00 27,6 °C 44 % 1019,2 hPa 0,0 l/m² 4,2 km/h 10 min 3,0 UV-I 583 W/m² 27,6 °C 100 %
26.05.2018 16:50 27,3 °C 44 % 1019,2 hPa 0,0 l/m² 7,2 km/h 10 min 3,3 UV-I 621 W/m² 27,2 °C 100 %
26.05.2018 16:40 27,4 °C 43 % 1019,3 hPa 0,0 l/m² 7,0 km/h 10 min 3,5 UV-I 645 W/m² 27,3 °C 100 %
26.05.2018 16:30 27,7 °C 43 % 1019,4 hPa 0,0 l/m² 6,4 km/h 10 min 3,8 UV-I 663 W/m² 27,7 °C 100 %
26.05.2018 16:20 27,8 °C 45 % 1019,5 hPa 0,0 l/m² 5,3 km/h 10 min 4,0 UV-I 658 W/m² 27,8 °C 100 %
26.05.2018 16:10 27,5 °C 46 % 1019,4 hPa 0,0 l/m² 6,6 km/h 10 min 4,3 UV-I 687 W/m² 27,5 °C 100 %
26.05.2018 16:00 27,4 °C 46 % 1019,5 hPa 0,0 l/m² 5,3 km/h 10 min 4,5 UV-I 691 W/m² 27,4 °C 100 %
26.05.2018 15:50 27,3 °C 45 % 1019,6 hPa 0,0 l/m² 7,3 km/h 10 min 4,9 UV-I 728 W/m² 27,1 °C 100 %
26.05.2018 15:40 27,3 °C 45 % 1019,7 hPa 0,0 l/m² 5,5 km/h 10 min 5,0 UV-I 697 W/m² 27,3 °C 100 %
26.05.2018 15:30 26,9 °C 46 % 1019,7 hPa 0,0 l/m² 8,4 km/h 10 min 5,4 UV-I 745 W/m² 26,5 °C 100 %
26.05.2018 15:20 27,2 °C 46 % 1019,8 hPa 0,0 l/m² 7,9 km/h 10 min 5,8 UV-I 778 W/m² 26,9 °C 100 %
26.05.2018 15:10 27,1 °C 47 % 1019,9 hPa 0,0 l/m² 6,5 km/h 10 min 6,1 UV-I 788 W/m² 27,1 °C 100 %
26.05.2018 15:00 26,7 °C 51 % 1019,8 hPa 0,0 l/m² 7,9 km/h 10 min 6,3 UV-I 796 W/m² 26,4 °C 100 %
26.05.2018 14:50 26,7 °C 51 % 1020,0 hPa 0,0 l/m² 6,7 km/h 10 min 6,5 UV-I 804 W/m² 26,6 °C 100 %
26.05.2018 14:40 26,4 °C 55 % 1020,0 hPa 0,0 l/m² 6,9 km/h 10 min 6,7 UV-I 811 W/m² 26,3 °C 100 %
26.05.2018 14:30 26,6 °C 54 % 1020,2 hPa 0,0 l/m² 6,9 km/h 10 min 6,9 UV-I 824 W/m² 26,5 °C 100 %
26.05.2018 14:20 26,3 °C 55 % 1020,2 hPa 0,0 l/m² 6,0 km/h 10 min 7,1 UV-I 829 W/m² 26,3 °C 99 %
26.05.2018 14:10 26,3 °C 54 % 1020,4 hPa 0,0 l/m² 4,6 km/h 10 min 7,3 UV-I 834 W/m² 26,3 °C 100 %
26.05.2018 14:00 25,9 °C 57 % 1020,5 hPa 0,0 l/m² 4,4 km/h 20 min 7,3 UV-I 835 W/m² 25,9 °C 100 %
26.05.2018 13:40 25,6 °C 58 % 1020,6 hPa 0,0 l/m² 3,2 km/h 10 min 7,6 UV-I 849 W/m² 25,6 °C 100 %
26.05.2018 13:30 25,3 °C 58 % 1020,7 hPa 0,0 l/m² 4,8 km/h 10 min 7,6 UV-I 843 W/m² 25,3 °C 100 %
26.05.2018 13:20 25,2 °C 57 % 1020,8 hPa 0,0 l/m² 6,4 km/h 10 min 7,7 UV-I 847 W/m² 25,2 °C 100 %
26.05.2018 13:10 25,0 °C 59 % 1020,8 hPa 0,0 l/m² 6,4 km/h 10 min 7,8 UV-I 849 W/m² 25,0 °C 100 %
26.05.2018 13:00 24,7 °C 60 % 1020,8 hPa 0,0 l/m² 6,4 km/h 10 min 7,8 UV-I 846 W/m² 24,7 °C 100 %
26.05.2018 12:50 24,3 °C 62 % 1020,8 hPa 0,0 l/m² 6,4 km/h 10 min 7,7 UV-I 840 W/m² 24,3 °C 100 %
26.05.2018 12:40 24,3 °C 65 % 1020,8 hPa 0,0 l/m² 4,8 km/h 10 min 7,7 UV-I 840 W/m² 24,3 °C 100 %
26.05.2018 12:30 24,2 °C 62 % 1020,9 hPa 0,0 l/m² 4,8 km/h 10 min 7,6 UV-I 837 W/m² 24,2 °C 100 %
26.05.2018 12:20 23,8 °C 67 % 1021,0 hPa 0,0 l/m² 4,8 km/h 10 min 7,4 UV-I 816 W/m² 23,8 °C 100 %
26.05.2018 12:10 23,7 °C 66 % 1021,0 hPa 0,0 l/m² 6,4 km/h 10 min 7,3 UV-I 810 W/m² 23,7 °C 100 %
26.05.2018 12:00 23,6 °C 67 % 1020,9 hPa 0,0 l/m² 4,8 km/h 10 min 7,1 UV-I 792 W/m² 23,6 °C 100 %
26.05.2018 11:50 23,5 °C 69 % 1020,9 hPa 0,0 l/m² 3,2 km/h 10 min 6,8 UV-I 775 W/m² 23,5 °C 100 %
26.05.2018 11:40 23,2 °C 70 % 1021,0 hPa 0,0 l/m² 3,2 km/h 10 min 6,5 UV-I 744 W/m² 23,2 °C 100 %
26.05.2018 11:30 22,7 °C 72 % 1021,0 hPa 0,0 l/m² 5,0 km/h 10 min 6,4 UV-I 757 W/m² 22,7 °C 100 %
26.05.2018 11:20 22,7 °C 73 % 1021,0 hPa 0,0 l/m² 3,5 km/h 10 min 6,2 UV-I 749 W/m² 22,7 °C 100 %
26.05.2018 11:10 22,5 °C 74 % 1021,0 hPa 0,0 l/m² 2,7 km/h 10 min 6,0 UV-I 727 W/m² 22,5 °C 100 %
26.05.2018 11:00 22,4 °C 74 % 1021,0 hPa 0,0 l/m² 4,3 km/h 10 min 5,7 UV-I 701 W/m² 22,4 °C 100 %
26.05.2018 10:50 22,1 °C 75 % 1021,0 hPa 0,0 l/m² 1,1 km/h 10 min 5,3 UV-I 652 W/m² 22,1 °C 100 %
26.05.2018 10:40 21,6 °C 77 % 1021,0 hPa 0,0 l/m² 3,1 km/h 10 min 5,1 UV-I 669 W/m² 21,6 °C 100 %
26.05.2018 10:30 21,1 °C 78 % 1020,9 hPa 0,0 l/m² 3,0 km/h 10 min 4,8 UV-I 642 W/m² 21,1 °C 100 %
26.05.2018 10:20 20,8 °C 76 % 1020,9 hPa 0,0 l/m² 3,5 km/h 10 min 4,4 UV-I 602 W/m² 20,8 °C 100 %
26.05.2018 10:10 20,5 °C 79 % 1021,0 hPa 0,0 l/m² 1,4 km/h 10 min 4,2 UV-I 575 W/m² 20,5 °C 100 %
26.05.2018 10:00 20,2 °C 80 % 1021,1 hPa 0,0 l/m² 1,2 km/h 8 min 3,9 UV-I 558 W/m² 20,2 °C 100 %
26.05.2018 09:52 19,7 °C 83 % 1021,1 hPa 0,0 l/m² 1,1 km/h 12 min 3,7 UV-I 515 W/m² 19,7 °C 100 %
26.05.2018 09:40 19,2 °C 83 % 1021,2 hPa 0,0 l/m² 0,9 km/h 60 min 3,4 UV-I 540 W/m² 19,2 °C 100 %
26.05.2018 08:40 17,0 °C 94 % 1021,5 hPa 0,0 l/m² 1,6 km/h 10 min 2,2 UV-I 462 W/m² 17,0 °C 100 %
26.05.2018 08:30 16,3 °C 96 % 1021,5 hPa 0,0 l/m² 1,6 km/h 10 min 1,9 UV-I 408 W/m² 16,3 °C 100 %
26.05.2018 08:20 15,9 °C 97 % 1021,4 hPa 0,0 l/m² 1,6 km/h 10 min 1,7 UV-I 392 W/m² 15,9 °C 100 %
26.05.2018 08:10 15,5 °C 97 % 1021,3 hPa 0,0 l/m² 1,6 km/h 10 min 1,5 UV-I 381 W/m² 15,5 °C 100 %
26.05.2018 08:00 14,8 °C 97 % 1021,3 hPa 0,0 l/m² 1,6 km/h 10 min 0,9 UV-I 210 W/m² 14,8 °C 100 %
26.05.2018 07:50 14,6 °C 97 % 1021,3 hPa 0,0 l/m² 3,2 km/h 0 min 0,6 UV-I 99 W/m² 14,6 °C 100 %
26.05.2018 07:40 14,6 °C 97 % 1021,2 hPa 0,0 l/m² 3,2 km/h 0 min 0,6 UV-I 100 W/m² 14,6 °C 100 %
26.05.2018 07:30 14,4 °C 97 % 1021,1 hPa 0,0 l/m² 3,2 km/h 0 min 0,5 UV-I 99 W/m² 14,4 °C 100 %
26.05.2018 07:20 14,3 °C 97 % 1021,0 hPa 0,0 l/m² 4,8 km/h 0 min 0,5 UV-I 94 W/m² 14,3 °C 100 %
26.05.2018 07:10 14,3 °C 97 % 1021,0 hPa 0,0 l/m² 3,2 km/h 0 min 0,3 UV-I 78 W/m² 14,3 °C 100 %
26.05.2018 07:00 14,2 °C 97 % 1021,0 hPa 0,0 l/m² 3,2 km/h 0 min 0,0 UV-I 64 W/m² 14,2 °C 100 %
26.05.2018 06:50 14,2 °C 97 % 1021,0 hPa 0,0 l/m² 4,8 km/h 0 min 0,0 UV-I 47 W/m² 14,2 °C 100 %
26.05.2018 06:40 14,2 °C 97 % 1021,0 hPa 0,0 l/m² 3,2 km/h 0 min 0,0 UV-I 36 W/m² 14,2 °C 100 %
26.05.2018 06:30 14,2 °C 97 % 1020,8 hPa 0,0 l/m² 3,2 km/h 0 min 0,0 UV-I 27 W/m² 14,2 °C 100 %
26.05.2018 06:20 14,2 °C 97 % 1020,8 hPa 0,0 l/m² 4,8 km/h 0 min 0,0 UV-I 27 W/m² 14,2 °C 100 %
26.05.2018 06:10 14,2 °C 97 % 1020,6 hPa 0,0 l/m² 3,2 km/h 0 min 0,0 UV-I 18 W/m² 14,2 °C 100 %
26.05.2018 06:00 14,1 °C 97 % 1020,5 hPa 0,0 l/m² 3,2 km/h 0 min 0,0 UV-I 10 W/m² 14,1 °C 100 %
26.05.2018 05:50 13,9 °C 97 % 1020,5 hPa 0,0 l/m² 0,0 km/h 0 min 0,0 UV-I 6 W/m² 13,9 °C 100 %
26.05.2018 05:40 13,6 °C 97 % 1020,5 hPa 0,0 l/m² 0,0 km/h 0 min 0,0 UV-I 1 W/m² 13,6 °C 100 %
26.05.2018 05:30 13,4 °C 97 % 1020,4 hPa 0,0 l/m² 0,0 km/h 0 min 0,0 UV-I 0 W/m² 13,4 °C 100 %
26.05.2018 05:20 13,2 °C 97 % 1020,3 hPa 0,0 l/m² 0,0 km/h 0 min 0,0 UV-I 0 W/m² 13,2 °C 100 %
26.05.2018 05:10 13,1 °C 97 % 1020,3 hPa 0,0 l/m² 0,0 km/h 0 min 0,0 UV-I 0 W/m² 13,1 °C 100 %
26.05.2018 05:00 12,9 °C 96 % 1020,1 hPa 0,0 l/m² 0,0 km/h 0 min 0,0 UV-I 0 W/m² 12,9 °C 100 %
26.05.2018 04:50 12,9 °C 96 % 1020,1 hPa 0,0 l/m² 0,0 km/h 0 min 0,0 UV-I 0 W/m² 12,9 °C 100 %
26.05.2018 04:40 12,8 °C 96 % 1020,1 hPa 0,0 l/m² 0,0 km/h 0 min 0,0 UV-I 0 W/m² 12,8 °C 100 %
26.05.2018 04:30 12,7 °C 96 % 1020,0 hPa 0,0 l/m² 0,0 km/h 0 min 0,0 UV-I 0 W/m² 12,7 °C 100 %
26.05.2018 04:20 12,7 °C 96 % 1020,1 hPa 0,0 l/m² 0,0 km/h 0 min 0,0 UV-I 0 W/m² 12,7 °C 100 %
26.05.2018 04:10 12,7 °C 96 % 1020,1 hPa 0,0 l/m² 0,0 km/h 0 min 0,0 UV-I 0 W/m² 12,7 °C 100 %
26.05.2018 04:00 12,7 °C 96 % 1020,2 hPa 0,0 l/m² 0,0 km/h 0 min 0,0 UV-I 0 W/m² 12,7 °C 100 %
26.05.2018 03:50 12,6 °C 96 % 1020,3 hPa 0,0 l/m² 0,0 km/h 0 min 0,0 UV-I 0 W/m² 12,6 °C 100 %
26.05.2018 03:40 12,6 °C 96 % 1020,3 hPa 0,0 l/m² 0,0 km/h 0 min 0,0 UV-I 0 W/m² 12,6 °C 100 %
26.05.2018 03:30 12,5 °C 96 % 1020,3 hPa 0,0 l/m² 0,0 km/h 0 min 0,0 UV-I 0 W/m² 12,5 °C 100 %
26.05.2018 03:20 12,5 °C 96 % 1020,2 hPa 0,0 l/m² 0,0 km/h 0 min 0,0 UV-I 0 W/m² 12,5 °C 100 %
26.05.2018 03:10 12,6 °C 95 % 1020,3 hPa 0,0 l/m² 0,0 km/h 0 min 0,0 UV-I 0 W/m² 12,6 °C 100 %
26.05.2018 03:00 12,6 °C 96 % 1020,3 hPa 0,0 l/m² 0,0 km/h 0 min 0,0 UV-I 0 W/m² 12,6 °C 100 %
26.05.2018 02:50 12,7 °C 95 % 1020,3 hPa 0,0 l/m² 0,0 km/h 0 min 0,0 UV-I 0 W/m² 12,7 °C 100 %
26.05.2018 02:40 12,7 °C 95 % 1020,3 hPa 0,0 l/m² 0,0 km/h 0 min 0,0 UV-I 0 W/m² 12,7 °C 100 %
26.05.2018 02:30 12,8 °C 95 % 1020,3 hPa 0,0 l/m² 0,0 km/h 0 min 0,0 UV-I 0 W/m² 12,8 °C 100 %
26.05.2018 02:20 12,8 °C 95 % 1020,1 hPa 0,0 l/m² 0,0 km/h 0 min 0,0 UV-I 0 W/m² 12,8 °C 100 %
26.05.2018 02:10 12,7 °C 95 % 1020,1 hPa 0,0 l/m² 0,0 km/h 0 min 0,0 UV-I 0 W/m² 12,7 °C 100 %
26.05.2018 02:00 12,7 °C 95 % 1020,0 hPa 0,0 l/m² 0,0 km/h 0 min 0,0 UV-I 0 W/m² 12,7 °C 100 %
26.05.2018 01:50 12,7 °C 94 % 1020,0 hPa 0,0 l/m² 0,0 km/h 0 min 0,0 UV-I 0 W/m² 12,7 °C 100 %
26.05.2018 01:40 12,7 °C 94 % 1020,0 hPa 0,0 l/m² 0,0 km/h 0 min 0,0 UV-I 0 W/m² 12,7 °C 100 %
26.05.2018 01:30 12,7 °C 94 % 1020,0 hPa 0,0 l/m² 0,0 km/h 0 min 0,0 UV-I 0 W/m² 12,7 °C 100 %
26.05.2018 01:20 12,8 °C 94 % 1020,0 hPa 0,0 l/m² 0,0 km/h 0 min 0,0 UV-I 0 W/m² 12,8 °C 100 %
26.05.2018 01:10 12,9 °C 94 % 1020,0 hPa 0,0 l/m² 0,0 km/h 0 min 0,0 UV-I 0 W/m² 12,9 °C 100 %
26.05.2018 01:00 13,1 °C 94 % 1019,9 hPa 0,0 l/m² 0,0 km/h 0 min 0,0 UV-I 0 W/m² 13,1 °C 100 %
26.05.2018 00:50 13,2 °C 94 % 1020,0 hPa 0,0 l/m² 0,0 km/h 0 min 0,0 UV-I 0 W/m² 13,2 °C 100 %
26.05.2018 00:40 13,3 °C 94 % 1020,2 hPa 0,0 l/m² 0,0 km/h 0 min 0,0 UV-I 0 W/m² 13,3 °C 100 %
26.05.2018 00:30 13,3 °C 94 % 1020,2 hPa 0,0 l/m² 0,0 km/h 0 min 0,0 UV-I 0 W/m² 13,3 °C 100 %
26.05.2018 00:20 13,5 °C 94 % 1020,2 hPa 0,2 l/m² 0,0 km/h 0 min 0,0 UV-I 0 W/m² 13,5 °C 100 %
26.05.2018 00:10 13,6 °C 94 % 1020,2 hPa 0,0 l/m² 0,0 km/h 0 min 0,0 UV-I 0 W/m² 13,6 °C 100 %
26.05.2018 00:00 13,8 °C 93 % 1020,2 hPa 0,0 l/m² 0,0 km/h 0 min 0,0 UV-I 0 W/m² 13,8 °C 100 %
_ Min-Zeit 03:30 16:40 18:50 - 23:00 - - - 03:30 22:00
Minimum _ 12,5 °C 43 % 1018,7 hPa - 0,0 km/h - - - 12,5 °C 91 %
_ Max-Zeit 16:20 08:20 08:40 00:20 15:30 09:40 13:10 13:40 16:20 23:00
Maximum _ 27,8 °C 97 % 1021,5 hPa 0,2 l/m² 8,4 km/h
O
60 min 7,8 UV-I 849 W/m² 27,8 °C 100 %
Durchschnitt _ 20,1 °C 74 % 1020,2 hPa #0,2 l/m² 2,2 km/h #11:50 h 4,2 UV-I 312 W/m² 20,1 °C 100 %